Time;durP1;ratioP1;P1;durP2;ratioP2;P2;SDS_P1;SDS_P2;PMS_P1;PMS_P2;Temp;Humidity;BMP_temperature;BMP_pressure;BME280_temperature;BME280_humidity;BME280_pressure;Samples;Min_cycle;Max_cycle;Signal;HPM_P1;HPM_P2
2021/09/09 00:00:37;;;;;;;14.05;2.75;;;;;;;;;;5032079;28;20025;-69
2021/09/09 00:03:05;;;;;;;3.42;0.90;;;;;;;;;;5031631;28;20018;-70
2021/09/09 00:05:32;;;;;;;3.72;0.90;;;;;;;;;;5030836;28;20017;-70
2021/09/09 00:07:59;;;;;;;1.83;0.65;;;;;;;;;;5034190;28;20474;-69
2021/09/09 00:10:27;;;;;;;5.28;0.75;;;;;;;;;;5032146;28;20033;-69
2021/09/09 00:12:54;;;;;;;4.15;0.88;;;;;;;;;;5039819;28;20082;-69
2021/09/09 00:15:21;;;;;;;4.93;0.95;;;;;;;;;;5035893;28;20064;-69
2021/09/09 00:17:48;;;;;;;4.43;0.60;;;;;;;;;;5035935;28;20021;-69
2021/09/09 00:20:15;;;;;;;3.28;0.77;;;;;;;;;;5036916;28;20029;-70
2021/09/09 00:22:43;;;;;;;4.32;0.95;;;;;;;;;;5037925;28;20155;-70
2021/09/09 00:25:10;;;;;;;5.20;0.70;;;;;;;;;;5036441;28;20126;-70
2021/09/09 00:27:38;;;;;;;2.72;0.70;;;;;;;;;;5034914;28;20049;-70
2021/09/09 00:30:05;;;;;;;5.65;0.80;;;;;;;;;;5036376;28;20021;-69
2021/09/09 00:32:32;;;;;;;1.65;0.65;;;;;;;;;;5038940;28;20506;-70
2021/09/09 00:34:59;;;;;;;3.72;0.90;;;;;;;;;;5035035;28;20071;-69
2021/09/09 00:37:26;;;;;;;5.25;0.90;;;;;;;;;;5034454;28;20076;-69
2021/09/09 00:39:54;;;;;;;3.30;1.45;;;;;;;;;;5036222;28;20017;-69
2021/09/09 00:42:21;;;;;;;5.15;1.00;;;;;;;;;;5033206;28;20033;-69
2021/09/09 00:44:48;;;;;;;2.35;0.57;;;;;;;;;;5036985;28;20090;-69
2021/09/09 00:47:15;;;;;;;4.95;1.02;;;;;;;;;;5037597;28;20038;-69
2021/09/09 00:49:43;;;;;;;5.72;1.17;;;;;;;;;;5039840;28;20038;-71
2021/09/09 00:52:11;;;;;;;3.78;0.80;;;;;;;;;;5037769;28;20068;-69
2021/09/09 00:54:39;;;;;;;5.55;1.05;;;;;;;;;;5034148;28;20386;-70
2021/09/09 00:57:06;;;;;;;4.18;0.95;;;;;;;;;;5041342;28;20092;-71
2021/09/09 00:59:34;;;;;;;1.85;0.75;;;;;;;;;;5034056;28;20021;-71
2021/09/09 01:02:01;;;;;;;3.97;1.25;;;;;;;;;;5034848;28;20029;-71
2021/09/09 01:04:28;;;;;;;2.95;1.10;;;;;;;;;;5033673;28;20020;-70
2021/09/09 01:06:57;;;;;;;5.32;0.95;;;;;;;;;;5033344;28;20030;-70
2021/09/09 01:09:24;;;;;;;3.28;0.80;;;;;;;;;;5033919;28;20029;-70
2021/09/09 01:11:51;;;;;;;3.25;0.80;;;;;;;;;;5040285;28;20103;-71
2021/09/09 01:14:19;;;;;;;11.90;1.35;;;;;;;;;;5044480;28;20041;-70
2021/09/09 01:16:47;;;;;;;1.80;0.70;;;;;;;;;;5037141;28;20025;-70
2021/09/09 01:19:15;;;;;;;2.63;0.90;;;;;;;;;;5033734;28;20096;-70
2021/09/09 01:21:42;;;;;;;3.83;1.23;;;;;;;;;;5033211;28;20117;-71
2021/09/09 01:24:12;;;;;;;4.45;0.70;;;;;;;;;;5032838;28;20104;-71
2021/09/09 01:26:48;;;;;;;14.73;2.17;;;;;;;;;;5036561;28;20025;-71
2021/09/09 01:29:15;;;;;;;8.23;1.60;;;;;;;;;;5034372;28;20065;-71
2021/09/09 01:31:42;;;;;;;3.58;0.80;;;;;;;;;;5049271;28;20057;-71
2021/09/09 01:34:09;;;;;;;6.35;0.70;;;;;;;;;;5038127;28;20102;-72
2021/09/09 01:36:37;;;;;;;4.65;0.60;;;;;;;;;;5035280;28;20394;-71
2021/09/09 01:39:04;;;;;;;3.40;0.73;;;;;;;;;;5038462;28;20417;-70
2021/09/09 01:41:31;;;;;;;2.40;0.90;;;;;;;;;;5044422;28;20021;-70
2021/09/09 01:43:58;;;;;;;2.35;0.60;;;;;;;;;;5047578;28;20032;-71
2021/09/09 01:46:26;;;;;;;4.32;0.60;;;;;;;;;;5037317;28;20531;-70
2021/09/09 01:48:53;;;;;;;7.63;1.05;;;;;;;;;;5043584;28;20543;-70
2021/09/09 01:51:20;;;;;;;2.90;0.73;;;;;;;;;;5038470;28;20417;-70
2021/09/09 01:53:47;;;;;;;2.10;0.70;;;;;;;;;;5037200;28;20030;-69
2021/09/09 01:56:15;;;;;;;2.58;0.93;;;;;;;;;;5039136;28;20037;-70
2021/09/09 01:58:42;;;;;;;4.22;0.80;;;;;;;;;;5036591;28;20033;-70
2021/09/09 02:01:10;;;;;;;3.65;0.93;;;;;;;;;;5040295;28;20552;-70
2021/09/09 02:03:37;;;;;;;1.10;0.40;;;;;;;;;;5037192;28;20048;-70
2021/09/09 02:06:05;;;;;;;2.78;0.85;;;;;;;;;;5042981;28;20025;-69
2021/09/09 02:08:32;;;;;;;2.38;0.50;;;;;;;;;;5039744;28;20044;-70
2021/09/09 02:10:59;;;;;;;2.63;0.50;;;;;;;;;;5033157;28;20582;-69
2021/09/09 02:13:26;;;;;;;5.55;0.50;;;;;;;;;;5033768;28;20143;-70
2021/09/09 02:15:53;;;;;;;3.83;0.50;;;;;;;;;;5033239;28;20025;-70
2021/09/09 02:18:20;;;;;;;1.20;0.47;;;;;;;;;;5036431;28;20091;-70
2021/09/09 02:20:48;;;;;;;5.47;0.40;;;;;;;;;;5037595;28;20047;-71
2021/09/09 02:23:15;;;;;;;2.42;0.60;;;;;;;;;;5033239;28;20021;-70
2021/09/09 02:25:42;;;;;;;2.78;0.50;;;;;;;;;;5032099;28;20029;-70
2021/09/09 02:28:09;;;;;;;1.75;0.50;;;;;;;;;;5034083;28;20407;-70
2021/09/09 02:30:36;;;;;;;3.97;0.90;;;;;;;;;;5035601;28;20029;-70
2021/09/09 02:33:03;;;;;;;2.75;0.30;;;;;;;;;;5033354;28;20029;-70
2021/09/09 02:35:31;;;;;;;3.53;0.30;;;;;;;;;;5033289;28;20104;-70
2021/09/09 02:37:58;;;;;;;5.25;0.57;;;;;;;;;;5044934;28;20049;-68
2021/09/09 02:40:25;;;;;;;0.90;0.25;;;;;;;;;;5032188;28;20565;-70
2021/09/09 02:42:52;;;;;;;2.58;0.57;;;;;;;;;;5046396;28;20033;-71
2021/09/09 02:45:20;;;;;;;2.00;0.30;;;;;;;;;;5045406;28;20513;-70
2021/09/09 02:47:47;;;;;;;0.63;0.32;;;;;;;;;;5032401;28;20079;-70
2021/09/09 02:50:14;;;;;;;0.80;0.43;;;;;;;;;;5031817;28;20037;-70
2021/09/09 02:52:41;;;;;;;1.60;0.40;;;;;;;;;;5046259;28;20021;-69
2021/09/09 02:55:09;;;;;;;2.38;0.30;;;;;;;;;;5034354;28;20079;-71
2021/09/09 02:57:37;;;;;;;0.95;0.38;;;;;;;;;;5046277;28;20036;-69
2021/09/09 03:00:08;;;;;;;2.17;0.32;;;;;;;;;;5052411;28;20115;-69
2021/09/09 03:02:35;;;;;;;2.90;0.43;;;;;;;;;;5042457;28;20025;-70
2021/09/09 03:05:02;;;;;;;3.22;0.50;;;;;;;;;;5032241;28;20032;-69
2021/09/09 03:07:29;;;;;;;1.88;0.40;;;;;;;;;;5031161;28;20432;-68
2021/09/09 03:09:56;;;;;;;2.10;0.30;;;;;;;;;;5032326;28;20024;-69
2021/09/09 03:12:23;;;;;;;1.10;0.30;;;;;;;;;;5032150;28;20049;-69
2021/09/09 03:14:50;;;;;;;2.75;0.70;;;;;;;;;;5033534;28;20048;-68
2021/09/09 03:17:17;;;;;;;4.10;0.50;;;;;;;;;;5031653;28;20049;-69
2021/09/09 03:19:45;;;;;;;2.25;0.47;;;;;;;;;;5038656;28;20478;-68
2021/09/09 03:22:12;;;;;;;3.30;0.50;;;;;;;;;;5034840;28;20033;-67
2021/09/09 03:24:39;;;;;;;1.67;0.70;;;;;;;;;;5032393;28;20086;-68
2021/09/09 03:27:06;;;;;;;3.60;0.65;;;;;;;;;;5039284;28;20450;-68
2021/09/09 03:29:33;;;;;;;2.30;0.60;;;;;;;;;;5031630;28;20059;-68
2021/09/09 03:32:00;;;;;;;2.30;0.60;;;;;;;;;;5033591;28;20505;-69
2021/09/09 03:34:27;;;;;;;2.65;1.35;;;;;;;;;;5051710;28;20082;-69
2021/09/09 03:36:55;;;;;;;4.10;1.65;;;;;;;;;;5041184;28;20020;-68
2021/09/09 03:39:22;;;;;;;7.35;2.58;;;;;;;;;;5030733;28;20519;-68
2021/09/09 03:41:49;;;;;;;4.63;2.03;;;;;;;;;;5031143;28;20030;-69
2021/09/09 03:44:16;;;;;;;4.05;2.53;;;;;;;;;;5034779;28;20021;-69
2021/09/09 03:46:43;;;;;;;7.97;3.60;;;;;;;;;;5035796;28;20026;-69
2021/09/09 03:49:10;;;;;;;6.05;3.80;;;;;;;;;;5035726;28;20025;-69
2021/09/09 03:51:38;;;;;;;6.05;3.33;;;;;;;;;;5035556;28;20041;-69
2021/09/09 03:54:05;;;;;;;6.35;3.78;;;;;;;;;;5035969;28;20092;-69
2021/09/09 03:56:32;;;;;;;5.50;3.88;;;;;;;;;;5041312;28;20051;-69
2021/09/09 03:58:59;;;;;;;7.30;4.78;;;;;;;;;;5055657;28;20413;-67
2021/09/09 04:01:26;;;;;;;10.27;4.97;;;;;;;;;;5048334;28;20079;-68
2021/09/09 04:03:53;;;;;;;7.45;4.78;;;;;;;;;;5034156;28;20029;-69
2021/09/09 04:06:22;;;;;;;11.32;4.40;;;;;;;;;;5038982;28;20055;-69
2021/09/09 04:08:49;;;;;;;5.32;4.07;;;;;;;;;;5047735;28;20021;-69
2021/09/09 04:11:16;;;;;;;15.63;4.72;;;;;;;;;;5054190;28;20036;-68
2021/09/09 04:13:43;;;;;;;6.35;4.07;;;;;;;;;;5048995;28;20033;-68
2021/09/09 04:16:10;;;;;;;5.50;3.58;;;;;;;;;;5045094;28;20025;-69
2021/09/09 04:18:37;;;;;;;4.53;3.50;;;;;;;;;;5042941;28;20017;-69
2021/09/09 04:21:04;;;;;;;5.00;2.63;;;;;;;;;;5050726;28;20143;-69
2021/09/09 04:23:31;;;;;;;3.85;2.00;;;;;;;;;;5045117;28;20521;-68
2021/09/09 04:25:58;;;;;;;3.00;1.73;;;;;;;;;;5033517;28;20143;-69
2021/09/09 04:28:26;;;;;;;5.47;1.73;;;;;;;;;;5041756;28;20608;-69
2021/09/09 04:30:53;;;;;;;4.55;1.42;;;;;;;;;;5033860;28;20068;-69
2021/09/09 04:33:20;;;;;;;3.20;1.30;;;;;;;;;;5048094;28;20031;-69
2021/09/09 04:35:47;;;;;;;2.17;0.70;;;;;;;;;;5053380;28;20025;-70
2021/09/09 04:38:14;;;;;;;2.40;0.88;;;;;;;;;;5054366;28;20045;-69
2021/09/09 04:40:41;;;;;;;4.28;0.80;;;;;;;;;;5053870;28;20390;-69
2021/09/09 04:43:09;;;;;;;1.88;0.75;;;;;;;;;;5034339;28;20014;-67
2021/09/09 04:45:36;;;;;;;1.30;0.57;;;;;;;;;;5032793;28;20203;-68
2021/09/09 04:48:03;;;;;;;1.27;0.50;;;;;;;;;;5039101;28;20034;-68
2021/09/09 04:50:30;;;;;;;2.70;0.43;;;;;;;;;;5041093;28;20453;-68
2021/09/09 04:52:57;;;;;;;2.28;0.75;;;;;;;;;;5035186;28;20116;-69
2021/09/09 04:55:25;;;;;;;3.75;0.70;;;;;;;;;;5038766;28;20079;-68
2021/09/09 04:57:52;;;;;;;2.47;0.80;;;;;;;;;;5033733;28;20087;-68
2021/09/09 05:00:19;;;;;;;2.78;0.63;;;;;;;;;;5034035;28;20490;-69
2021/09/09 05:02:46;;;;;;;2.30;0.70;;;;;;;;;;5048255;28;20143;-69
2021/09/09 05:05:14;;;;;;;4.68;0.90;;;;;;;;;;5045817;28;20028;-69
2021/09/09 05:07:41;;;;;;;5.10;0.85;;;;;;;;;;5037568;28;20033;-68
2021/09/09 05:10:08;;;;;;;3.80;0.68;;;;;;;;;;5036896;28;20017;-69
2021/09/09 05:12:36;;;;;;;3.58;0.50;;;;;;;;;;5034224;28;20030;-68
2021/09/09 05:15:03;;;;;;;2.97;0.63;;;;;;;;;;5035344;28;20028;-69
2021/09/09 05:17:31;;;;;;;2.83;0.50;;;;;;;;;;5043372;28;20033;-70
2021/09/09 05:19:58;;;;;;;2.92;0.47;;;;;;;;;;5037946;28;20385;-70
2021/09/09 05:22:25;;;;;;;3.75;0.60;;;;;;;;;;5037739;28;20393;-69
2021/09/09 05:24:52;;;;;;;2.10;0.50;;;;;;;;;;5036300;28;20112;-70
2021/09/09 05:27:19;;;;;;;1.30;0.63;;;;;;;;;;5039705;28;20108;-69
2021/09/09 05:29:46;;;;;;;3.17;0.70;;;;;;;;;;5037735;28;20053;-70
2021/09/09 05:32:13;;;;;;;3.33;0.60;;;;;;;;;;5041366;28;20061;-71
2021/09/09 05:34:40;;;;;;;1.35;0.30;;;;;;;;;;5035124;28;20022;-70
2021/09/09 05:37:08;;;;;;;1.52;0.45;;;;;;;;;;5034369;28;20021;-70
2021/09/09 05:39:35;;;;;;;5.65;0.77;;;;;;;;;;5033666;28;20065;-70
2021/09/09 05:42:02;;;;;;;1.45;0.50;;;;;;;;;;5035255;28;20033;-71
2021/09/09 05:44:32;;;;;;;3.38;0.60;;;;;;;;;;5037617;28;20036;-69
2021/09/09 05:46:59;;;;;;;3.15;0.57;;;;;;;;;;5032903;28;20521;-69
2021/09/09 05:49:26;;;;;;;2.30;0.80;;;;;;;;;;5043311;28;20029;-69
2021/09/09 05:51:53;;;;;;;1.63;0.60;;;;;;;;;;5044284;28;20033;-70
2021/09/09 05:54:21;;;;;;;1.75;0.70;;;;;;;;;;5033925;28;20033;-71
2021/09/09 05:56:48;;;;;;;0.50;0.40;;;;;;;;;;5036140;28;20083;-70
2021/09/09 05:59:15;;;;;;;1.05;0.50;;;;;;;;;;5035577;28;20064;-69
2021/09/09 06:01:44;;;;;;;3.30;0.70;;;;;;;;;;5033116;28;20374;-70
2021/09/09 06:04:13;;;;;;;1.85;0.80;;;;;;;;;;5033981;28;20083;-72
2021/09/09 06:06:41;;;;;;;3.72;0.68;;;;;;;;;;5040000;28;20424;-72
2021/09/09 06:09:08;;;;;;;2.60;0.80;;;;;;;;;;5035881;28;20387;-71
2021/09/09 06:11:35;;;;;;;5.43;0.50;;;;;;;;;;5042222;28;20040;-71
2021/09/09 06:14:02;;;;;;;4.55;1.00;;;;;;;;;;5032862;28;20028;-71
2021/09/09 06:16:29;;;;;;;7.30;1.10;;;;;;;;;;5042575;28;20622;-71
2021/09/09 06:18:57;;;;;;;3.70;0.70;;;;;;;;;;5031485;28;20029;-71
2021/09/09 06:21:24;;;;;;;1.95;0.73;;;;;;;;;;5032983;28;20065;-70
2021/09/09 06:23:51;;;;;;;2.58;0.57;;;;;;;;;;5038330;28;20464;-70
2021/09/09 06:26:19;;;;;;;3.60;0.73;;;;;;;;;;5035384;28;20323;-71
2021/09/09 06:28:46;;;;;;;3.50;1.88;;;;;;;;;;5033872;28;20018;-71
2021/09/09 06:31:13;;;;;;;4.07;1.80;;;;;;;;;;5037169;28;20048;-71
2021/09/09 06:33:41;;;;;;;5.93;1.50;;;;;;;;;;5039936;28;20021;-71
2021/09/09 06:36:08;;;;;;;4.05;1.20;;;;;;;;;;5041740;28;20017;-70
2021/09/09 06:38:35;;;;;;;2.60;0.55;;;;;;;;;;5036189;28;20494;-70
2021/09/09 06:41:02;;;;;;;3.03;0.70;;;;;;;;;;5031497;28;20037;-72
2021/09/09 06:43:29;;;;;;;3.35;0.65;;;;;;;;;;5040839;28;20033;-69
2021/09/09 06:45:56;;;;;;;0.60;0.40;;;;;;;;;;5034369;28;20045;-70
2021/09/09 06:48:23;;;;;;;2.72;0.75;;;;;;;;;;5032338;28;20482;-70
2021/09/09 06:50:50;;;;;;;3.67;0.60;;;;;;;;;;5037793;28;20572;-70
2021/09/09 06:53:20;;;;;;;1.13;0.60;;;;;;;;;;5038644;28;20021;-70
2021/09/09 06:55:48;;;;;;;4.85;0.80;;;;;;;;;;5042620;28;20025;-70
2021/09/09 06:58:15;;;;;;;3.60;0.68;;;;;;;;;;5032529;28;20048;-70
2021/09/09 07:00:42;;;;;;;4.22;0.65;;;;;;;;;;5036353;28;20658;-69
2021/09/09 07:03:09;;;;;;;1.80;0.55;;;;;;;;;;5043037;28;20029;-70
2021/09/09 07:05:36;;;;;;;1.42;0.63;;;;;;;;;;5032599;28;20490;-70
2021/09/09 07:08:04;;;;;;;2.42;0.70;;;;;;;;;;5032616;28;20033;-70
2021/09/09 07:10:31;;;;;;;1.60;0.60;;;;;;;;;;5033118;28;20390;-71
2021/09/09 07:12:58;;;;;;;5.03;1.30;;;;;;;;;;5033594;28;20037;-71
2021/09/09 07:15:25;;;;;;;2.88;0.90;;;;;;;;;;5038832;28;20033;-71
2021/09/09 07:17:52;;;;;;;3.95;0.70;;;;;;;;;;5037560;28;20021;-72
2021/09/09 07:20:19;;;;;;;1.95;0.85;;;;;;;;;;5052149;28;20025;-71
2021/09/09 07:22:47;;;;;;;2.50;0.55;;;;;;;;;;5041963;28;20024;-70
2021/09/09 07:25:14;;;;;;;2.50;0.70;;;;;;;;;;5030567;28;20436;-70
2021/09/09 07:27:41;;;;;;;0.88;0.50;;;;;;;;;;5033513;28;20025;-70
2021/09/09 07:30:08;;;;;;;1.08;0.73;;;;;;;;;;5029615;28;20124;-71
2021/09/09 07:32:36;;;;;;;1.13;0.50;;;;;;;;;;5030327;28;20030;-69
2021/09/09 07:35:03;;;;;;;1.83;0.50;;;;;;;;;;5042742;28;20030;-69
2021/09/09 07:37:30;;;;;;;5.75;1.50;;;;;;;;;;5031585;28;20046;-70
2021/09/09 07:39:58;;;;;;;1.20;0.70;;;;;;;;;;5033701;28;20480;-70
2021/09/09 07:42:25;;;;;;;1.95;0.70;;;;;;;;;;5036939;28;20021;-68
2021/09/09 07:44:52;;;;;;;1.80;1.02;;;;;;;;;;5034825;28;20021;-68
2021/09/09 07:47:19;;;;;;;11.27;1.35;;;;;;;;;;5037859;28;20431;-69
2021/09/09 07:49:46;;;;;;;2.75;0.60;;;;;;;;;;5042125;28;20017;-70
2021/09/09 07:52:13;;;;;;;1.65;0.63;;;;;;;;;;5030818;28;20049;-69
2021/09/09 07:54:40;;;;;;;2.85;0.80;;;;;;;;;;5031504;28;20021;-70
2021/09/09 07:57:07;;;;;;;1.95;0.57;;;;;;;;;;5031670;28;20021;-69
2021/09/09 07:59:35;;;;;;;1.50;0.90;;;;;;;;;;5033242;28;20029;-69
2021/09/09 08:02:05;;;;;;;1.30;0.60;;;;;;;;;;5032481;28;20033;-70
2021/09/09 08:04:32;;;;;;;2.70;0.63;;;;;;;;;;5036373;28;20100;-69
2021/09/09 08:06:59;;;;;;;2.25;0.70;;;;;;;;;;5036973;28;20414;-68
2021/09/09 08:09:26;;;;;;;1.05;0.50;;;;;;;;;;5034729;28;20022;-70
2021/09/09 08:11:54;;;;;;;2.13;0.60;;;;;;;;;;5037683;28;20139;-70
2021/09/09 08:14:21;;;;;;;1.65;0.50;;;;;;;;;;5034084;28;20056;-70
2021/09/09 08:16:48;;;;;;;0.73;0.60;;;;;;;;;;5037746;28;20068;-70
2021/09/09 08:19:15;;;;;;;1.63;0.88;;;;;;;;;;5029358;28;20025;-69
2021/09/09 08:21:42;;;;;;;5.85;0.98;;;;;;;;;;5035091;28;20024;-69
2021/09/09 08:24:09;;;;;;;6.65;1.40;;;;;;;;;;5033479;28;20025;-70
2021/09/09 08:26:37;;;;;;;3.60;1.77;;;;;;;;;;5032031;28;20131;-70
2021/09/09 08:29:04;;;;;;;3.47;1.90;;;;;;;;;;5033394;28;20083;-69
2021/09/09 08:31:32;;;;;;;5.43;2.38;;;;;;;;;;5036460;28;20028;-69
2021/09/09 08:33:59;;;;;;;4.65;2.17;;;;;;;;;;5037567;28;20056;-69
2021/09/09 08:36:26;;;;;;;4.65;2.58;;;;;;;;;;5036728;28;20024;-71
2021/09/09 08:38:54;;;;;;;4.25;2.17;;;;;;;;;;5043423;28;20053;-70
2021/09/09 08:41:21;;;;;;;4.05;1.92;;;;;;;;;;5044013;28;20025;-71
2021/09/09 08:43:48;;;;;;;4.10;1.70;;;;;;;;;;5049993;28;20026;-69
2021/09/09 08:46:17;;;;;;;3.85;1.45;;;;;;;;;;5037316;28;20049;-68
2021/09/09 08:48:49;;;;;;;3.92;1.30;;;;;;;;;;5035328;28;20045;-69
2021/09/09 08:51:16;;;;;;;2.08;1.25;;;;;;;;;;5045068;28;20038;-69
2021/09/09 08:53:44;;;;;;;2.63;1.02;;;;;;;;;;5033622;28;20026;-69
2021/09/09 08:56:15;;;;;;;4.90;1.10;;;;;;;;;;5038130;28;20033;-69
2021/09/09 08:58:43;;;;;;;1.58;1.00;;;;;;;;;;5040379;28;20025;-70
2021/09/09 09:01:14;;;;;;;2.75;0.90;;;;;;;;;;5033585;28;20036;-69
2021/09/09 09:03:49;;;;;;;4.30;1.65;;;;;;;;;;5041990;28;20029;-70
2021/09/09 09:06:30;;;;;;;3.80;1.02;;;;;;;;;;5039026;28;20021;-70
2021/09/09 09:08:59;;;;;;;4.50;1.60;;;;;;;;;;5035601;28;20508;-70
2021/09/09 09:11:30;;;;;;;3.78;1.20;;;;;;;;;;5034349;28;20030;-70
2021/09/09 09:13:57;;;;;;;1.63;0.63;;;;;;;;;;5037086;28;20052;-69
2021/09/09 09:16:25;;;;;;;1.83;1.00;;;;;;;;;;5038493;28;20032;-70
2021/09/09 09:18:53;;;;;;;1.92;0.47;;;;;;;;;;5036508;28;20427;-70
2021/09/09 09:21:21;;;;;;;3.13;0.75;;;;;;;;;;5036794;28;20083;-69
2021/09/09 09:23:52;;;;;;;1.25;0.45;;;;;;;;;;5035373;28;20029;-69
2021/09/09 09:26:20;;;;;;;3.42;0.50;;;;;;;;;;5040129;28;20236;-69
2021/09/09 09:28:49;;;;;;;1.05;0.60;;;;;;;;;;5040970;28;20030;-69
2021/09/09 09:31:17;;;;;;;0.85;0.50;;;;;;;;;;5042463;28;20029;-69
2021/09/09 09:33:46;;;;;;;1.40;0.60;;;;;;;;;;5034033;28;20045;-69
2021/09/09 09:36:17;;;;;;;1.65;0.50;;;;;;;;;;5037997;28;20092;-71
2021/09/09 09:38:44;;;;;;;2.38;0.60;;;;;;;;;;5034510;28;20120;-69
2021/09/09 09:41:12;;;;;;;1.80;0.73;;;;;;;;;;5035409;28;20033;-69
2021/09/09 09:43:49;;;;;;;1.45;0.65;;;;;;;;;;5036782;28;20021;-70
2021/09/09 09:46:27;;;;;;;2.55;0.88;;;;;;;;;;5036236;28;20024;-70
2021/09/09 09:48:54;;;;;;;0.82;0.60;;;;;;;;;;5040169;28;20104;-70
2021/09/09 09:51:53;;;;;;;2.40;0.55;;;;;;;;;;5036527;28;20040;-70
2021/09/09 09:54:21;;;;;;;1.02;0.45;;;;;;;;;;5036081;28;20041;-70
2021/09/09 09:56:49;;;;;;;1.02;0.40;;;;;;;;;;5032726;28;20018;-71
2021/09/09 09:59:17;;;;;;;2.78;0.55;;;;;;;;;;5043058;28;20028;-69
2021/09/09 10:01:44;;;;;;;2.13;0.52;;;;;;;;;;5031445;28;20550;-70
2021/09/09 10:04:29;;;;;;;1.80;0.77;;;;;;;;;;5041188;28;20072;-70
2021/09/09 10:06:57;;;;;;;1.25;0.70;;;;;;;;;;5039009;28;20104;-69
2021/09/09 10:09:24;;;;;;;1.88;0.77;;;;;;;;;;5033914;28;20021;-70
2021/09/09 10:11:51;;;;;;;2.33;0.60;;;;;;;;;;5036015;28;20512;-71
2021/09/09 10:14:28;;;;;;;0.65;0.47;;;;;;;;;;5038951;28;20026;-69
2021/09/09 10:16:56;;;;;;;1.50;0.47;;;;;;;;;;5032463;28;20032;-70
2021/09/09 10:19:30;;;;;;;2.75;0.50;;;;;;;;;;5035276;28;20041;-70
2021/09/09 10:22:06;;;;;;;0.90;0.60;;;;;;;;;;5036058;28;20437;-69
2021/09/09 10:24:35;;;;;;;1.77;0.52;;;;;;;;;;5033091;28;20021;-70
2021/09/09 10:27:20;;;;;;;1.25;0.80;;;;;;;;;;5042026;28;20034;-69
2021/09/09 10:29:47;;;;;;;1.08;0.50;;;;;;;;;;5041337;28;20017;-68
2021/09/09 10:32:30;;;;;;;1.27;0.57;;;;;;;;;;5033898;28;20038;-68
2021/09/09 10:35:18;;;;;;;0.73;0.50;;;;;;;;;;5041252;28;20091;-69
2021/09/09 10:37:50;;;;;;;1.70;0.77;;;;;;;;;;5041182;28;20056;-69
2021/09/09 10:40:29;;;;;;;0.70;0.45;;;;;;;;;;5034970;28;20025;-70
2021/09/09 10:42:57;;;;;;;1.15;0.63;;;;;;;;;;5043058;28;20031;-69
2021/09/09 10:45:37;;;;;;;1.73;0.50;;;;;;;;;;5044097;28;20099;-69
2021/09/09 10:48:06;;;;;;;1.75;0.60;;;;;;;;;;5037096;28;20018;-68
2021/09/09 10:50:34;;;;;;;1.30;0.52;;;;;;;;;;5033104;28;20076;-68
2021/09/09 10:53:03;;;;;;;1.05;0.50;;;;;;;;;;5042832;28;20112;-69
2021/09/09 10:55:32;;;;;;;1.25;0.52;;;;;;;;;;5052099;28;20021;-68
2021/09/09 10:58:14;;;;;;;3.00;0.70;;;;;;;;;;5047437;28;20478;-67
2021/09/09 11:00:54;;;;;;;1.35;0.60;;;;;;;;;;5052873;28;20061;-69
2021/09/09 11:03:36;;;;;;;0.73;0.47;;;;;;;;;;5053176;28;20029;-68
2021/09/09 11:06:05;;;;;;;0.90;0.40;;;;;;;;;;5034930;28;20382;-69
2021/09/09 11:08:32;;;;;;;1.88;0.68;;;;;;;;;;5036099;28;20031;-68
2021/09/09 11:10:59;;;;;;;1.52;0.65;;;;;;;;;;5037266;28;20048;-68
2021/09/09 11:13:27;;;;;;;1.08;0.60;;;;;;;;;;5045109;28;20021;-68
2021/09/09 11:15:54;;;;;;;0.80;0.40;;;;;;;;;;5039997;28;20029;-68
2021/09/09 11:18:29;;;;;;;1.45;0.50;;;;;;;;;;5051679;28;20052;-69
2021/09/09 11:20:55;;;;;;;;;;;;;;;;;;5052516;28;20052;-69
2021/09/09 11:23:25;;;;;;;4.82;1.20;;;;;;;;;;5040194;28;19912;-69
2021/09/09 11:25:52;;;;;;;1.33;0.50;;;;;;;;;;5035075;28;20025;-68
2021/09/09 11:28:19;;;;;;;3.15;0.63;;;;;;;;;;5037403;28;20060;-68
2021/09/09 11:31:07;;;;;;;2.78;0.57;;;;;;;;;;5033915;28;20032;-68
2021/09/09 11:33:45;;;;;;;0.98;0.57;;;;;;;;;;5033481;28;20030;-69
2021/09/09 11:36:13;;;;;;;0.82;0.60;;;;;;;;;;5033842;28;20104;-68
2021/09/09 11:38:40;;;;;;;1.90;0.50;;;;;;;;;;5043516;28;20045;-68
2021/09/09 11:41:08;;;;;;;1.63;0.77;;;;;;;;;;5052081;28;20529;-67
2021/09/09 11:43:35;;;;;;;0.93;0.68;;;;;;;;;;5039136;28;20036;-68
2021/09/09 11:46:02;;;;;;;0.60;0.40;;;;;;;;;;5031748;28;20040;-68
2021/09/09 11:48:29;;;;;;;0.60;0.40;;;;;;;;;;5037706;28;20022;-69
2021/09/09 11:50:56;;;;;;;1.75;0.57;;;;;;;;;;5033078;28;20037;-68
2021/09/09 11:53:24;;;;;;;1.98;0.75;;;;;;;;;;5048963;28;20029;-68
2021/09/09 11:55:52;;;;;;;0.98;0.50;;;;;;;;;;5051277;28;20037;-69
2021/09/09 11:58:35;;;;;;;1.23;0.55;;;;;;;;;;5051400;28;20025;-70
2021/09/09 12:01:02;;;;;;;2.60;0.80;;;;;;;;;;5031410;28;20105;-68
2021/09/09 12:03:30;;;;;;;0.95;0.70;;;;;;;;;;5048488;28;20478;-68
2021/09/09 12:05:57;;;;;;;0.80;0.50;;;;;;;;;;5054873;28;20017;-68
2021/09/09 12:08:25;;;;;;;1.02;0.50;;;;;;;;;;5038966;28;20021;-68
2021/09/09 12:10:52;;;;;;;0.85;0.30;;;;;;;;;;5054077;28;20130;-66
2021/09/09 12:13:33;;;;;;;2.08;0.40;;;;;;;;;;5048238;28;20492;-66
2021/09/09 12:16:16;;;;;;;1.00;0.57;;;;;;;;;;5054809;28;20049;-66
2021/09/09 12:18:44;;;;;;;4.22;0.77;;;;;;;;;;5041068;28;20033;-68
2021/09/09 12:21:19;;;;;;;1.27;0.60;;;;;;;;;;5033466;28;20109;-69
2021/09/09 12:24:00;;;;;;;1.02;0.75;;;;;;;;;;5047338;28;20021;-68
2021/09/09 12:26:27;;;;;;;2.33;0.70;;;;;;;;;;5038480;28;20028;-69
2021/09/09 12:28:55;;;;;;;1.30;0.50;;;;;;;;;;5035712;28;20037;-69
2021/09/09 12:31:36;;;;;;;1.52;0.63;;;;;;;;;;5042148;28;20080;-69
2021/09/09 12:34:23;;;;;;;1.20;0.63;;;;;;;;;;5033622;28;20045;-68
2021/09/09 12:36:52;;;;;;;2.05;0.88;;;;;;;;;;5038977;28;20097;-69
2021/09/09 12:39:20;;;;;;;2.13;0.70;;;;;;;;;;5036084;28;20072;-68
2021/09/09 12:41:48;;;;;;;2.38;0.70;;;;;;;;;;5038672;28;20072;-69
2021/09/09 12:44:20;;;;;;;2.70;0.80;;;;;;;;;;5039093;28;20021;-68
2021/09/09 12:46:51;;;;;;;7.22;1.65;;;;;;;;;;5036289;28;20549;-69
2021/09/09 12:49:22;;;;;;;2.15;0.95;;;;;;;;;;5040418;28;20032;-69
2021/09/09 12:52:05;;;;;;;8.50;1.30;;;;;;;;;;5035945;28;20029;-69
2021/09/09 12:54:38;;;;;;;5.77;1.73;;;;;;;;;;5037300;28;20025;-68
2021/09/09 12:57:05;;;;;;;5.07;1.90;;;;;;;;;;5044623;28;20032;-68
2021/09/09 12:59:32;;;;;;;9.23;1.65;;;;;;;;;;5035777;28;20160;-67
2021/09/09 13:02:00;;;;;;;3.45;1.13;;;;;;;;;;5034156;28;20433;-70
2021/09/09 13:04:30;;;;;;;3.75;1.17;;;;;;;;;;5043994;28;20044;-68
2021/09/09 13:06:58;;;;;;;2.95;1.10;;;;;;;;;;5038162;28;20036;-69
2021/09/09 13:09:26;;;;;;;3.03;0.80;;;;;;;;;;5034350;28;20028;-68
2021/09/09 13:11:54;;;;;;;3.90;0.70;;;;;;;;;;5034578;28;20045;-68
2021/09/09 13:14:21;;;;;;;3.42;0.95;;;;;;;;;;5039472;28;20028;-69
2021/09/09 13:16:48;;;;;;;2.17;0.85;;;;;;;;;;5042305;28;20049;-69
2021/09/09 13:19:15;;;;;;;5.60;0.60;;;;;;;;;;5054449;28;20485;-68
2021/09/09 13:21:43;;;;;;;3.97;0.70;;;;;;;;;;5042716;28;20053;-69
2021/09/09 13:24:10;;;;;;;1.95;0.88;;;;;;;;;;5042654;28;20520;-68
2021/09/09 13:26:37;;;;;;;1.73;0.77;;;;;;;;;;5035867;28;20029;-68
2021/09/09 13:29:04;;;;;;;1.48;0.90;;;;;;;;;;5034507;28;20030;-69
2021/09/09 13:31:32;;;;;;;1.65;0.70;;;;;;;;;;5037532;28;20112;-69
2021/09/09 13:34:00;;;;;;;1.42;0.73;;;;;;;;;;5049523;28;20025;-68
2021/09/09 13:36:32;;;;;;;2.05;0.70;;;;;;;;;;5045857;28;20024;-68
2021/09/09 13:38:59;;;;;;;2.63;0.75;;;;;;;;;;5033932;28;20079;-68
2021/09/09 13:41:26;;;;;;;1.70;0.80;;;;;;;;;;5037150;28;20097;-68
2021/09/09 13:43:53;;;;;;;2.50;0.80;;;;;;;;;;5037748;28;20037;-68
2021/09/09 13:46:20;;;;;;;3.30;0.73;;;;;;;;;;5038616;28;20032;-68
2021/09/09 13:48:48;;;;;;;1.60;0.80;;;;;;;;;;5052206;28;20021;-68
2021/09/09 13:51:15;;;;;;;2.75;0.90;;;;;;;;;;5035598;28;20106;-69
2021/09/09 13:53:42;;;;;;;2.25;0.60;;;;;;;;;;5046915;28;20051;-68
2021/09/09 13:56:09;;;;;;;1.67;0.50;;;;;;;;;;5033466;28;20021;-68
2021/09/09 13:58:36;;;;;;;4.13;0.80;;;;;;;;;;5034308;28;20113;-68
2021/09/09 14:01:04;;;;;;;1.35;0.82;;;;;;;;;;5038874;28;20547;-68
2021/09/09 14:03:31;;;;;;;8.05;1.58;;;;;;;;;;5053183;28;20075;-68
2021/09/09 14:05:58;;;;;;;7.78;1.88;;;;;;;;;;5039326;28;20029;-68
2021/09/09 14:08:25;;;;;;;13.02;2.15;;;;;;;;;;5035830;28;20044;-68
2021/09/09 14:10:52;;;;;;;11.40;2.67;;;;;;;;;;5046098;28;20041;-68
2021/09/09 14:13:20;;;;;;;8.75;1.58;;;;;;;;;;5053121;28;20017;-68
2021/09/09 14:15:47;;;;;;;9.77;1.85;;;;;;;;;;5048178;28;20424;-68
2021/09/09 14:18:14;;;;;;;7.93;1.42;;;;;;;;;;5044398;28;20028;-68
2021/09/09 14:20:42;;;;;;;12.30;2.42;;;;;;;;;;5034899;28;20040;-67
2021/09/09 14:23:09;;;;;;;4.25;1.40;;;;;;;;;;5033232;28;20536;-69
2021/09/09 14:25:36;;;;;;;11.43;2.40;;;;;;;;;;5041190;28;20032;-68
2021/09/09 14:28:06;;;;;;;8.30;1.73;;;;;;;;;;5034275;28;20038;-69
2021/09/09 14:30:34;;;;;;;5.95;1.63;;;;;;;;;;5045913;28;20041;-68
2021/09/09 14:33:02;;;;;;;8.30;1.80;;;;;;;;;;5040855;28;20022;-69
2021/09/09 14:35:29;;;;;;;7.78;1.65;;;;;;;;;;5033048;28;20022;-69
2021/09/09 14:37:56;;;;;;;6.90;1.55;;;;;;;;;;5032566;28;20045;-69
2021/09/09 14:40:23;;;;;;;5.05;1.67;;;;;;;;;;5048984;28;20047;-68
2021/09/09 14:42:53;;;;;;;7.72;1.63;;;;;;;;;;5039490;28;20033;-69
2021/09/09 14:45:20;;;;;;;7.95;1.48;;;;;;;;;;5036081;28;20021;-68
2021/09/09 14:47:47;;;;;;;7.50;2.25;;;;;;;;;;5048828;28;20025;-68
2021/09/09 14:50:15;;;;;;;15.32;2.83;;;;;;;;;;5037795;28;20040;-69